Time;durP1;ratioP1;P1;durP2;ratioP2;P2;SDS_P1;SDS_P2;PMS_P1;PMS_P2;Temp;Humidity;BMP_temperature;BMP_pressure;BME280_temperature;BME280_humidity;BME280_pressure;Samples;Min_cycle;Max_cycle;Signal;HPM_P1;HPM_P2
2022/02/15 00:00:22;;;;;;;10.00;6.00;;;;;;;11.76;56.68;99435.16;4815039;29;119964;-90
2022/02/15 00:02:49;;;;;;;10.65;5.97;;;;;;;11.77;56.96;99413.94;4802101;29;123573;-89
2022/02/15 00:05:15;;;;;;;13.93;6.72;;;;;;;11.84;56.92;99430.03;4786585;29;121372;-89
2022/02/15 00:07:40;;;;;;;13.40;6.15;;;;;;;11.68;56.71;99404.66;4787506;29;120790;-90
2022/02/15 00:10:08;;;;;;;12.15;6.75;;;;;;;11.58;57.29;99408.81;4800621;29;122591;-88
2022/02/15 00:12:37;;;;;;;12.32;6.80;;;;;;;11.87;57.02;99440.03;4782243;29;121055;-92
2022/02/15 00:15:07;;;;;;;13.15;6.70;;;;;;;11.76;57.49;99424.19;4831532;28;122607;-91
2022/02/15 00:17:34;;;;;;;10.77;6.45;;;;;;;11.75;57.21;99432.91;4832432;29;120079;-91
2022/02/15 00:20:00;;;;;;;14.23;6.25;;;;;;;11.52;57.79;99393.53;4833844;28;121592;-90
2022/02/15 00:22:26;;;;;;;13.00;6.38;;;;;;;11.72;58.10;99395.44;4792742;29;121640;-91
2022/02/15 00:24:52;;;;;;;13.02;6.03;;;;;;;11.89;57.68;99435.56;4785871;29;120766;-88
2022/02/15 00:27:18;;;;;;;13.38;6.53;;;;;;;11.48;58.30;99379.28;4832954;28;119804;-88
2022/02/15 00:29:44;;;;;;;15.43;6.55;;;;;;;11.65;59.19;99408.38;4813862;29;123177;-90
2022/02/15 00:32:10;;;;;;;17.02;7.35;;;;;;;11.78;59.48;99445.66;4785149;29;120628;-89
2022/02/15 00:34:36;;;;;;;13.55;7.03;;;;;;;11.32;60.23;99381.41;4805558;29;122091;-87
2022/02/15 00:37:02;;;;;;;15.90;6.22;;;;;;;11.64;60.15;99423.34;4784988;29;122802;-88
2022/02/15 00:39:30;;;;;;;17.35;5.38;;;;;;;11.72;60.17;99439.38;4813772;29;120265;-88
2022/02/15 00:41:56;;;;;;;13.27;4.35;;;;;;;11.59;59.86;99410.34;4804205;29;122116;-90
2022/02/15 00:44:23;;;;;;;12.02;3.92;;;;;;;11.37;60.28;99375.22;4815091;29;121259;-92
2022/02/15 00:46:49;;;;;;;9.95;3.55;;;;;;;11.65;59.47;99421.38;4800640;29;121684;-90
2022/02/15 00:49:15;;;;;;;10.63;3.83;;;;;;;11.25;60.46;99370.09;4815033;29;121602;-90
2022/02/15 00:51:41;;;;;;;13.52;3.95;;;;;;;11.38;61.11;99398.69;4784394;29;120356;-90
2022/02/15 00:54:07;;;;;;;11.13;3.20;;;;;;;11.39;60.80;99399.44;4805009;29;122634;-91
2022/02/15 00:56:33;;;;;;;14.52;3.50;;;;;;;11.32;61.19;99395.13;4830983;28;120314;-89
2022/02/15 00:59:01;;;;;;;15.70;2.50;;;;;;;11.34;61.81;99400.13;4784890;29;120210;-90
2022/02/15 01:01:30;;;;;;;16.15;3.22;;;;;;;11.38;61.81;99400.69;4801019;29;119767;-91
2022/02/15 01:03:56;;;;;;;13.15;2.92;;;;;;;11.42;61.58;99403.19;4822305;29;120102;-90
2022/02/15 01:06:22;;;;;;;17.75;3.03;;;;;;;11.36;62.29;99408.66;4795309;29;121981;-90
2022/02/15 01:08:50;;;;;;;16.70;3.30;;;;;;;11.21;61.87;99386.03;4796698;29;123040;-91
2022/02/15 01:11:16;;;;;;;15.98;3.15;;;;;;;11.53;63.09;99438.97;4813779;29;119720;-88
2022/02/15 01:13:42;;;;;;;15.73;3.17;;;;;;;11.26;63.80;99405.31;4796653;29;119649;-91
2022/02/15 01:16:09;;;;;;;15.15;3.13;;;;;;;11.16;63.89;99389.50;4796549;29;123473;-91
2022/02/15 01:18:37;;;;;;;15.95;3.15;;;;;;;11.48;63.35;99437.69;4798213;29;120095;-89
2022/02/15 01:21:06;;;;;;;15.02;3.53;;;;;;;11.44;64.40;99442.66;4812451;29;121879;-90
2022/02/15 01:23:32;;;;;;;18.08;3.35;;;;;;;11.35;63.72;99426.34;4798036;29;122852;-92
2022/02/15 01:25:59;;;;;;;18.65;3.75;;;;;;;11.34;63.69;99422.09;4800579;29;121782;-93
2022/02/15 01:28:24;;;;;;;17.83;2.97;;;;;;;11.25;63.92;99411.28;4798231;29;123151;-89
2022/02/15 01:30:51;;;;;;;17.27;3.28;;;;;;;11.33;64.04;99426.81;4797645;29;121080;-91
2022/02/15 01:33:17;;;;;;;18.33;3.60;;;;;;;11.25;64.28;99431.25;4813659;29;120343;-90
2022/02/15 01:35:45;;;;;;;14.10;3.10;;;;;;;11.27;64.68;99436.25;4796801;29;122113;-90
2022/02/15 01:38:13;;;;;;;16.95;3.05;;;;;;;11.21;64.63;99414.25;4782595;29;120480;-89
2022/02/15 01:40:40;;;;;;;11.98;2.90;;;;;;;11.45;65.33;99441.41;4798185;29;121861;-89
2022/02/15 01:43:09;;;;;;;12.75;3.20;;;;;;;11.20;64.94;99403.75;4811943;29;124740;-90
2022/02/15 01:45:35;;;;;;;13.23;2.85;;;;;;;11.15;64.58;99390.75;4796226;29;121708;-94
2022/02/15 01:48:01;;;;;;;13.57;3.17;;;;;;;11.03;64.25;99371.41;4800378;29;121964;-87
2022/02/15 01:50:30;;;;;;;13.75;3.55;;;;;;;11.32;64.25;99432.78;4810472;29;121950;-89
2022/02/15 01:52:56;;;;;;;20.17;3.53;;;;;;;11.32;64.24;99430.06;4811693;29;120980;-90
2022/02/15 01:55:22;;;;;;;14.25;3.70;;;;;;;11.51;64.41;99453.19;4797793;29;122973;-90
2022/02/15 01:57:51;;;;;;;15.27;2.83;;;;;;;11.59;64.05;99461.75;4798149;29;120061;-90
2022/02/15 02:00:22;;;;;;;19.58;3.35;;;;;;;11.59;63.87;99446.03;4812681;29;120074;-87
2022/02/15 02:02:58;;;;;;;19.55;5.43;;;;;;;11.39;63.99;99424.16;4813614;29;120706;-90
2022/02/15 02:08:10;;;;;;;27.73;7.65;;;;;;;11.72;64.42;99469.59;4813438;29;122358;-90
2022/02/15 02:10:45;;;;;;;;;;;;;;;11.71;63.82;99487.31;4817750;29;121992;-92
2022/02/15 02:13:20;;;;;;;19.63;6.45;;;;;;;11.50;64.60;99446.19;4798087;29;121539;-89
2022/02/15 02:15:50;;;;;;;15.85;3.58;;;;;;;11.68;63.33;99472.56;4796593;29;122655;-89
2022/02/15 02:18:20;;;;;;;21.17;8.70;;;;;;;11.33;64.63;99417.84;4829317;28;122303;-89
2022/02/15 02:20:48;;;;;;;15.32;4.72;;;;;;;11.83;64.64;99491.69;4778481;29;122039;-90
2022/02/15 02:23:17;;;;;;;13.35;3.22;;;;;;;11.41;64.22;99427.16;4813070;29;120509;-88
2022/02/15 02:25:44;;;;;;;12.63;3.65;;;;;;;11.55;64.50;99450.97;4814250;29;120005;-89
2022/02/15 02:28:13;;;;;;;10.75;3.05;;;;;;;11.55;64.42;99442.75;4815731;29;122569;-90
2022/02/15 02:30:39;;;;;;;11.40;2.90;;;;;;;11.67;64.56;99468.31;4796117;29;120870;-89
2022/02/15 02:33:06;;;;;;;13.18;2.90;;;;;;;11.56;65.03;99460.72;4815185;29;121436;-90
2022/02/15 02:35:34;;;;;;;8.75;2.45;;;;;;;11.44;64.39;99448.16;4819767;29;122275;-91
2022/02/15 02:38:00;;;;;;;12.93;3.05;;;;;;;11.51;65.21;99458.69;4804403;29;119508;-91
2022/02/15 02:40:28;;;;;;;11.18;2.97;;;;;;;11.91;64.71;99517.50;4815823;29;119810;-90
2022/02/15 02:43:01;;;;;;;10.55;2.13;;;;;;;11.43;65.25;99463.13;4803149;29;122041;-90
2022/02/15 02:45:29;;;;;;;10.25;2.28;;;;;;;11.69;65.44;99488.56;4818563;29;120646;-91
2022/02/15 02:47:55;;;;;;;11.93;2.50;;;;;;;11.43;64.57;99463.13;4802396;29;121236;-91
2022/02/15 02:50:28;;;;;;;12.77;2.38;;;;;;;11.48;64.33;99469.88;4787418;29;121938;-90
2022/02/15 02:52:57;;;;;;;8.13;2.20;;;;;;;11.46;64.02;99462.13;4826125;29;119203;-90
2022/02/15 02:55:26;;;;;;;11.90;2.05;;;;;;;11.73;64.09;99495.81;4785674;29;122465;-92
2022/02/15 02:57:53;;;;;;;9.50;2.33;;;;;;;12.04;64.13;99536.31;4792448;29;119541;-92
2022/02/15 03:00:22;;;;;;;13.45;2.92;;;;;;;11.82;64.73;99501.91;4818319;29;122018;-91
2022/02/15 03:03:07;;;;;;;12.70;2.15;;;;;;;11.83;63.94;99511.69;4816432;29;120746;-91
2022/02/15 03:05:35;;;;;;;9.95;2.15;;;;;;;11.85;63.91;99508.47;4785572;29;119488;-91
2022/02/15 03:08:01;;;;;;;12.25;2.05;;;;;;;11.71;63.93;99490.81;4788930;29;120777;-92
2022/02/15 03:10:38;;;;;;;10.48;2.10;;;;;;;11.96;63.97;99527.78;4803056;29;122029;-90
2022/02/15 03:13:12;;;;;;;11.02;2.50;;;;;;;11.70;63.57;99497.56;4820351;29;119420;-91
2022/02/15 03:15:40;;;;;;;10.30;2.20;;;;;;;11.83;63.59;99522.69;4794122;29;120648;-92
2022/02/15 03:18:13;;;;;;;15.40;2.53;;;;;;;11.79;63.79;99522.13;4791420;29;120548;-90
2022/02/15 03:20:38;;;;;;;13.30;2.20;;;;;;;11.74;63.91;99519.31;4784598;29;121555;-89
2022/02/15 03:23:04;;;;;;;12.55;2.63;;;;;;;11.87;63.04;99544.44;4795493;29;123112;-90
2022/02/15 03:25:31;;;;;;;15.05;2.38;;;;;;;11.69;63.39;99523.50;4779603;29;121240;-91
2022/02/15 03:28:00;;;;;;;12.02;2.50;;;;;;;11.83;63.75;99574.09;4804033;29;119700;-91
2022/02/15 03:30:27;;;;;;;10.13;2.60;;;;;;;11.52;64.03;99523.34;4798570;29;122795;-91
2022/02/15 03:32:53;;;;;;;14.40;2.70;;;;;;;11.71;64.80;99553.25;4829253;28;120530;-93
2022/02/15 03:35:19;;;;;;;19.45;3.40;;;;;;;11.93;64.16;99589.19;4830313;28;122325;-88
2022/02/15 03:37:55;;;;;;;14.30;2.72;;;;;;;11.65;65.05;99562.19;4818893;29;121960;-90
2022/02/15 03:40:21;;;;;;;11.70;2.47;;;;;;;11.82;63.88;99586.31;4796608;29;122145;-88
2022/02/15 03:45:48;;;;;;;14.82;2.65;;;;;;;11.84;63.20;99611.34;4787955;29;119994;-89
2022/02/15 03:48:21;;;;;;;13.65;2.80;;;;;;;11.94;63.56;99632.69;4800064;29;122246;-91
2022/02/15 03:50:47;;;;;;;15.20;2.90;;;;;;;11.67;62.95;99598.16;4814847;29;122845;-90
2022/02/15 03:53:17;;;;;;;15.15;3.38;;;;;;;11.82;64.08;99619.31;4799366;29;120027;-91
2022/02/15 03:55:46;;;;;;;17.92;3.70;;;;;;;11.82;64.43;99616.56;4811243;29;121435;-91
2022/02/15 03:58:13;;;;;;;18.63;3.30;;;;;;;11.78;63.11;99613.25;4814369;29;122885;-88
2022/02/15 04:00:40;;;;;;;18.30;3.70;;;;;;;12.03;64.01;99664.72;4803062;29;119975;-90
2022/02/15 04:03:17;;;;;;;21.95;3.85;;;;;;;11.82;64.24;99641.28;4799228;29;123110;-90
2022/02/15 04:05:49;;;;;;;23.40;3.78;;;;;;;11.80;63.83;99621.78;4797026;29;119980;-90
2022/02/15 04:08:16;;;;;;;16.98;3.20;;;;;;;11.81;62.54;99628.78;4801532;29;121914;-90
2022/02/15 04:10:42;;;;;;;19.38;4.10;;;;;;;12.02;62.33;99660.47;4828821;28;120828;-92
2022/02/15 04:13:11;;;;;;;24.63;4.10;;;;;;;11.83;63.18;99631.78;4784522;29;119913;-90
2022/02/15 04:15:37;;;;;;;24.38;4.25;;;;;;;11.97;63.53;99663.94;4812213;29;122149;-92
2022/02/15 04:18:06;;;;;;;26.10;3.97;;;;;;;12.11;63.99;99687.06;4832263;29;120075;-93
2022/02/15 04:20:32;;;;;;;23.70;4.20;;;;;;;12.09;62.67;99681.31;4817300;29;120670;-90
2022/02/15 04:22:57;;;;;;;21.42;3.80;;;;;;;11.96;62.79;99673.41;4803153;29;121188;-91
2022/02/15 04:25:23;;;;;;;26.27;4.45;;;;;;;12.09;62.62;99698.56;4801359;29;119555;-89
2022/02/15 04:27:51;;;;;;;18.77;3.65;;;;;;;11.99;62.09;99686.19;4817915;29;119495;-91
2022/02/15 04:30:21;;;;;;;23.80;4.03;;;;;;;12.13;61.50;99712.06;4801261;29;119498;-91
2022/02/15 04:32:49;;;;;;;25.60;4.25;;;;;;;11.82;61.77;99677.00;4818238;29;119828;-91
2022/02/15 04:35:16;;;;;;;26.42;4.45;;;;;;;11.98;62.48;99704.66;4790170;29;120908;-90
2022/02/15 04:37:44;;;;;;;21.58;4.18;;;;;;;11.89;63.13;99690.34;4797691;29;123230;-90
2022/02/15 04:40:13;;;;;;;19.08;4.07;;;;;;;11.92;62.22;99708.59;4813766;29;120271;-90
2022/02/15 04:42:40;;;;;;;16.83;3.40;;;;;;;11.90;62.80;99705.59;4803298;29;122710;-90
2022/02/15 04:45:06;;;;;;;16.98;3.33;;;;;;;12.14;61.83;99755.56;4806568;29;122921;-92
2022/02/15 04:47:48;;;;;;;18.58;3.75;;;;;;;11.86;62.49;99721.53;4788252;29;122434;-91
2022/02/15 04:50:14;;;;;;;17.67;3.60;;;;;;;11.92;62.20;99731.34;4816888;29;121107;-91
2022/02/15 04:52:44;;;;;;;18.48;3.50;;;;;;;12.01;61.95;99752.41;4802513;29;119648;-91
2022/02/15 04:55:17;;;;;;;21.00;4.70;;;;;;;11.75;61.69;99724.09;4802484;29;121649;-91
2022/02/15 04:57:50;;;;;;;21.25;3.90;;;;;;;11.60;62.05;99713.19;4815708;29;123021;-91
2022/02/15 05:00:16;;;;;;;22.73;4.03;;;;;;;11.70;61.55;99722.78;4779626;29;120008;-89
2022/02/15 05:02:57;;;;;;;21.55;3.90;;;;;;;11.97;62.22;99780.09;4804219;29;121165;-89
2022/02/15 05:05:23;;;;;;;24.58;4.47;;;;;;;11.58;62.11;99730.13;4792710;29;122951;-91
2022/02/15 05:07:49;;;;;;;20.45;3.65;;;;;;;11.60;63.15;99726.94;4801669;29;122098;-90
2022/02/15 05:10:15;;;;;;;18.38;3.72;;;;;;;11.69;61.69;99746.00;4829660;29;120460;-90
2022/02/15 05:12:45;;;;;;;24.27;4.53;;;;;;;11.80;61.71;99772.88;4801826;29;119930;-90
2022/02/15 05:15:24;;;;;;;14.43;2.85;;;;;;;11.67;60.93;99773.97;4802898;29;123884;-90
2022/02/15 05:17:58;;;;;;;20.03;3.67;;;;;;;11.75;60.85;99788.03;4802972;29;123344;-91
2022/02/15 05:20:24;;;;;;;23.15;3.70;;;;;;;11.60;61.40;99790.09;4817731;29;119639;-91
2022/02/15 05:22:51;;;;;;;17.92;3.40;;;;;;;11.49;61.98;99781.69;4802237;29;122054;-91
2022/02/15 05:25:25;;;;;;;20.80;3.92;;;;;;;11.53;61.18;99780.25;4786132;29;121963;-91
2022/02/15 05:27:53;;;;;;;18.73;3.95;;;;;;;11.44;60.88;99783.13;4791696;29;119963;-92
2022/02/15 05:30:21;;;;;;;18.35;3.40;;;;;;;11.49;61.70;99784.44;4801055;29;122820;-90
2022/02/15 05:33:07;;;;;;;16.73;3.70;;;;;;;11.50;62.29;99794.19;4804895;29;119868;-90
2022/02/15 05:35:41;;;;;;;17.58;3.60;;;;;;;11.54;61.97;99795.50;4791527;29;121238;-91
2022/02/15 05:38:07;;;;;;;17.27;3.22;;;;;;;11.50;61.08;99797.69;4788032;29;122622;-91
2022/02/15 05:40:38;;;;;;;20.20;3.60;;;;;;;11.76;60.58;99847.25;4801938;29;120020;-91
2022/02/15 05:43:13;;;;;;;19.38;3.55;;;;;;;11.35;60.58;99786.72;4801559;29;120814;-90
2022/02/15 05:45:44;;;;;;;21.17;6.13;;;;;;;11.58;61.60;99826.25;4800849;29;120148;-87
2022/02/15 05:48:27;;;;;;;17.13;2.92;;;;;;;11.49;61.55;99817.38;4802820;29;119755;-90
2022/02/15 05:50:58;;;;;;;15.98;3.20;;;;;;;11.51;61.23;99832.16;4801334;29;122148;-89
2022/02/15 05:53:43;;;;;;;16.88;3.88;;;;;;;11.34;61.39;99811.91;4812911;29;120043;-91
2022/02/15 05:56:15;;;;;;;18.13;3.40;;;;;;;11.40;62.01;99833.97;4797037;29;120969;-89
2022/02/15 05:58:54;;;;;;;19.20;3.28;;;;;;;11.36;61.33;99836.94;4831457;29;123926;-86
2022/02/15 06:01:46;;;;;;;19.35;3.67;;;;;;;11.20;61.19;99821.69;4812614;29;119880;-88
2022/02/15 06:04:11;;;;;;;15.15;3.15;;;;;;;11.31;61.10;99840.31;4803854;29;121785;-90
2022/02/15 06:06:42;;;;;;;19.13;3.83;;;;;;;11.05;60.46;99824.44;4803588;29;122845;-87
2022/02/15 06:09:14;;;;;;;22.10;3.53;;;;;;;11.29;60.86;99862.00;4801995;29;119766;-90
2022/02/15 06:11:43;;;;;;;17.67;3.38;;;;;;;11.52;61.47;99896.06;4782988;29;122420;-90
2022/02/15 06:14:09;;;;;;;19.00;3.60;;;;;;;11.11;60.90;99837.50;4820406;29;120065;-89
2022/02/15 06:16:37;;;;;;;20.77;3.58;;;;;;;11.19;61.08;99852.38;4814579;29;122110;-89
2022/02/15 06:19:12;;;;;;;19.02;3.38;;;;;;;11.29;61.83;99872.97;4814315;29;123152;-89
2022/02/15 06:21:38;;;;;;;23.10;3.80;;;;;;;11.05;61.12;99840.91;4809361;29;120267;-89
2022/02/15 06:24:12;;;;;;;20.88;4.25;;;;;;;11.27;61.25;99878.19;4798455;29;122307;-89
2022/02/15 06:26:38;;;;;;;21.85;4.18;;;;;;;11.34;60.77;99899.78;4784851;29;122647;-89
2022/02/15 06:29:24;;;;;;;17.30;3.75;;;;;;;10.96;60.28;99853.97;4801994;29;119955;-91
2022/02/15 06:31:55;;;;;;;22.23;4.13;;;;;;;11.15;60.34;99884.75;4784887;29;121711;-89
2022/02/15 06:34:26;;;;;;;23.48;3.88;;;;;;;10.89;60.49;99857.84;4818077;29;122943;-88
2022/02/15 06:36:59;;;;;;;20.23;3.47;;;;;;;10.97;60.64;99878.19;4817682;29;119674;-91
2022/02/15 06:39:30;;;;;;;18.92;4.00;;;;;;;10.89;60.23;99877.06;4813674;29;120378;-91
2022/02/15 06:41:58;;;;;;;15.73;3.70;;;;;;;10.83;60.50;99865.22;4813283;29;119802;-92
2022/02/15 06:44:26;;;;;;;19.23;3.92;;;;;;;10.96;60.06;99897.88;4815525;29;121139;-91
2022/02/15 06:46:54;;;;;;;22.05;3.78;;;;;;;10.90;60.41;99888.78;4823755;28;120949;-92
2022/02/15 06:49:36;;;;;;;15.75;3.33;;;;;;;10.79;60.28;99878.34;4828368;28;120099;-89
2022/02/15 06:52:22;;;;;;;19.52;3.38;;;;;;;10.89;60.05;99907.25;4815711;29;123453;-89
2022/02/15 06:54:58;;;;;;;18.38;3.78;;;;;;;11.09;59.64;99939.50;4792635;29;123419;-91
2022/02/15 06:57:35;;;;;;;18.23;3.40;;;;;;;10.89;59.25;99912.72;4816484;29;119623;-91
2022/02/15 07:00:04;;;;;;;20.50;3.67;;;;;;;10.82;58.80;99910.34;4826006;28;120386;-91
2022/02/15 07:02:31;;;;;;;18.17;3.70;;;;;;;10.81;59.81;99922.53;4807406;29;120005;-90
2022/02/15 07:04:57;;;;;;;19.45;3.95;;;;;;;10.82;59.75;99920.53;4785558;29;121688;-91
2022/02/15 07:07:22;;;;;;;16.55;3.45;;;;;;;10.86;59.57;99938.34;4799799;29;124831;-91
2022/02/15 07:09:53;;;;;;;16.23;3.72;;;;;;;10.91;58.87;99940.44;4825450;28;119670;-90
2022/02/15 07:12:25;;;;;;;22.95;3.50;;;;;;;10.90;59.51;99944.44;4800343;29;120969;-91
2022/02/15 07:15:07;;;;;;;17.88;3.65;;;;;;;11.06;58.84;99976.88;4798087;29;123542;-89
2022/02/15 07:17:42;;;;;;;18.27;3.75;;;;;;;11.01;59.53;99977.56;4815941;29;119911;-90
2022/02/15 07:20:18;;;;;;;17.90;3.42;;;;;;;11.05;59.37;99978.13;4788309;29;121206;-90
2022/02/15 07:23:06;;;;;;;24.23;3.60;;;;;;;10.75;59.25;99946.38;4816889;28;119592;-89
2022/02/15 07:25:44;;;;;;;18.77;4.05;;;;;;;11.04;60.15;99995.06;4813326;29;120637;-90
2022/02/15 07:28:32;;;;;;;26.55;3.72;;;;;;;10.81;60.04;99966.41;4814659;29;122095;-89
2022/02/15 07:30:58;;;;;;;22.83;3.83;;;;;;;11.01;59.23;99983.03;4814719;29;119675;-90
2022/02/15 07:33:24;;;;;;;20.00;3.75;;;;;;;10.91;59.62;99967.13;4799289;29;121999;-90
2022/02/15 07:35:52;;;;;;;16.40;3.72;;;;;;;11.07;59.33;99992.13;4799372;29;122775;-91
2022/02/15 07:38:20;;;;;;;19.52;3.90;;;;;;;11.31;59.17;100038.75;4786159;29;119775;-89
2022/02/15 07:40:48;;;;;;;17.38;3.05;;;;;;;11.09;59.43;100005.38;4815367;29;122381;-91
2022/02/15 07:43:13;;;;;;;19.50;3.50;;;;;;;10.94;60.19;99980.66;4814101;29;119989;-91
2022/02/15 07:45:46;;;;;;;19.02;3.55;;;;;;;10.95;59.89;99982.19;4816053;29;119546;-90
2022/02/15 07:48:12;;;;;;;15.65;3.67;;;;;;;10.97;59.31;99978.97;4830136;28;120400;-89
2022/02/15 07:50:41;;;;;;;15.63;3.10;;;;;;;11.33;59.27;100030.03;4817986;29;120437;-91
2022/02/15 07:53:09;;;;;;;23.10;3.40;;;;;;;11.11;58.52;99985.69;4798158;29;122261;-90
2022/02/15 07:55:37;;;;;;;22.70;3.78;;;;;;;11.12;58.76;99990.75;4816955;29;122921;-92
2022/02/15 07:58:04;;;;;;;18.90;3.80;;;;;;;11.12;58.52;99993.50;4817354;29;119764;-91
2022/02/15 08:00:32;;;;;;;19.80;3.70;;;;;;;11.18;58.64;100004.56;4801374;29;121265;-89
2022/02/15 08:03:07;;;;;;;18.83;3.30;;;;;;;11.30;58.66;100020.00;4804177;29;120009;-89
2022/02/15 08:05:34;;;;;;;17.60;3.50;;;;;;;11.17;59.13;100006.56;4826478;29;118608;-91
2022/02/15 08:08:07;;;;;;;21.83;3.85;;;;;;;11.22;60.39;100010.63;4804647;29;118899;-90
2022/02/15 08:10:36;;;;;;;24.52;4.40;;;;;;;11.46;60.40;100038.78;4790842;29;119224;-90
2022/02/15 08:13:03;;;;;;;21.17;3.97;;;;;;;11.35;58.80;100025.59;4819816;29;121441;-90
2022/02/15 08:15:33;;;;;;;25.95;3.75;;;;;;;11.51;58.25;100035.38;4805045;29;119186;-91
2022/02/15 08:18:05;;;;;;;22.08;4.22;;;;;;;11.45;58.13;100029.03;4819383;29;118588;-91
2022/02/15 08:20:32;;;;;;;23.00;3.70;;;;;;;11.37;57.69;100014.16;4820666;29;119157;-90
2022/02/15 08:23:01;;;;;;;22.90;3.85;;;;;;;11.43;57.83;100017.00;4802604;29;122601;-91
2022/02/15 08:25:28;;;;;;;24.13;3.83;;;;;;;11.55;57.71;100054.41;4802523;29;119568;-91
2022/02/15 08:27:54;;;;;;;24.23;4.20;;;;;;;11.91;58.57;100105.56;4820722;29;124171;-92
2022/02/15 08:30:22;;;;;;;24.65;4.47;;;;;;;11.61;57.74;100067.03;4808291;29;119970;-89
2022/02/15 08:32:51;;;;;;;22.73;4.75;;;;;;;11.71;58.10;100075.19;4817236;29;120624;-90
2022/02/15 08:35:21;;;;;;;22.73;4.40;;;;;;;11.79;57.84;100085.34;4799720;29;122613;-90
2022/02/15 08:37:49;;;;;;;24.45;3.97;;;;;;;11.89;57.58;100102.50;4785041;29;119654;-91
2022/02/15 08:40:18;;;;;;;24.83;4.47;;;;;;;11.87;56.73;100085.75;4801571;29;122046;-90
2022/02/15 08:42:44;;;;;;;21.38;4.32;;;;;;;11.62;57.47;100054.81;4785080;29;122157;-91
2022/02/15 08:45:11;;;;;;;21.33;3.72;;;;;;;11.59;56.81;100049.47;4801071;29;119611;-89
2022/02/15 08:47:37;;;;;;;18.33;4.20;;;;;;;11.60;57.27;100049.03;4787794;29;121182;-92
2022/02/15 08:50:08;;;;;;;19.13;4.40;;;;;;;11.91;56.58;100095.31;4805634;29;123334;-90
2022/02/15 08:52:36;;;;;;;15.98;3.63;;;;;;;11.83;56.72;100069.44;4799417;29;121079;-89
2022/02/15 08:55:04;;;;;;;18.80;3.70;;;;;;;12.19;56.29;100125.25;4816496;29;120113;-91
2022/02/15 08:57:29;;;;;;;17.85;3.25;;;;;;;12.11;58.02;100108.41;4803152;29;119544;-91
2022/02/15 08:59:55;;;;;;;17.52;3.85;;;;;;;11.99;56.73;100079.19;4816310;29;122170;-92
2022/02/15 09:02:23;;;;;;;20.48;3.30;;;;;;;11.99;56.26;100076.44;4799534;29;121591;-91
2022/02/15 09:04:49;;;;;;;16.58;3.38;;;;;;;11.99;55.08;100084.69;4812327;29;119570;-91
2022/02/15 09:07:15;;;;;;;22.83;4.32;;;;;;;12.02;55.79;100089.25;4800849;29;122116;-89
2022/02/15 09:09:49;;;;;;;17.83;3.78;;;;;;;11.89;55.36;100058.53;4786709;29;121852;-91
2022/02/15 09:12:15;;;;;;;16.85;3.47;;;;;;;11.93;54.93;100070.09;4820580;29;119686;-90
2022/02/15 09:14:41;;;;;;;16.45;3.40;;;;;;;12.36;55.13;100122.81;4799464;29;121870;-90
2022/02/15 09:17:12;;;;;;;18.00;3.25;;;;;;;12.18;56.12;100093.50;4804925;29;119716;-91
2022/02/15 09:19:40;;;;;;;20.02;3.67;;;;;;;12.47;57.96;100122.97;4786140;29;122068;-91
2022/02/15 09:22:06;;;;;;;21.67;4.13;;;;;;;12.06;56.69;100061.56;4809364;29;125136;-90
2022/02/15 09:24:32;;;;;;;21.65;4.05;;;;;;;12.08;56.06;100070.88;4809786;29;119906;-90
2022/02/15 09:27:06;;;;;;;17.08;3.97;;;;;;;12.36;56.72;100126.31;4815871;29;119622;-88
2022/02/15 09:29:33;;;;;;;17.48;3.92;;;;;;;12.53;56.11;100137.56;4785125;29;123218;-91
2022/02/15 09:32:01;;;;;;;21.98;4.65;;;;;;;12.51;54.48;100143.53;4803103;29;120187;-92
2022/02/15 09:34:29;;;;;;;24.45;3.88;;;;;;;12.38;56.05;100117.56;4817033;29;123278;-87
2022/02/15 09:36:55;;;;;;;22.67;3.42;;;;;;;12.58;56.45;100140.41;4815624;29;120467;-91
2022/02/15 09:39:21;;;;;;;16.38;3.70;;;;;;;12.51;55.15;100138.03;4810545;29;122880;-91
2022/02/15 09:41:49;;;;;;;17.10;3.75;;;;;;;12.44;57.55;100110.16;4815960;29;121690;-90
2022/02/15 09:44:16;;;;;;;19.70;3.55;;;;;;;12.38;54.14;100085.34;4797368;29;119883;-90
2022/02/15 09:46:44;;;;;;;18.17;3.47;;;;;;;12.92;53.71;100162.91;4811005;29;122546;-87
2022/02/15 09:51:58;;;;;;;12.60;3.30;;;;;;;12.72;52.75;100132.59;4816055;29;120185;-90
2022/02/15 09:54:24;;;;;;;13.07;3.13;;;;;;;12.94;52.89;100160.44;4786447;29;121154;-93
2022/02/15 09:56:50;;;;;;;17.20;3.90;;;;;;;12.81;54.44;100122.25;4827479;28;119747;-92
2022/02/15 09:59:19;;;;;;;18.92;3.67;;;;;;;12.89;53.01;100136.34;4814862;29;120453;-89
2022/02/15 10:01:46;;;;;;;16.48;3.50;;;;;;;12.90;52.86;100143.38;4815398;29;120639;-92
2022/02/15 10:04:12;;;;;;;17.67;3.55;;;;;;;12.67;52.20;100114.00;4809015;29;119513;-90
2022/02/15 10:06:40;;;;;;;15.93;3.53;;;;;;;12.61;51.55;100122.19;4799964;29;122283;-87
2022/02/15 10:09:08;;;;;;;19.42;3.50;;;;;;;12.44;53.99;100097.16;4828757;28;121489;-89
2022/02/15 10:11:38;;;;;;;22.30;4.30;;;;;;;12.95;52.61;100166.69;4815354;29;120498;-89
2022/02/15 10:14:05;;;;;;;16.40;3.63;;;;;;;12.72;54.67;100133.34;4817628;29;119855;-88
2022/02/15 10:16:44;;;;;;;15.88;3.63;;;;;;;12.94;54.10;100165.19;4831862;28;123055;-89
2022/02/15 10:19:28;;;;;;;13.37;3.23;;;;;;;12.97;56.01;100161.47;4816032;29;121424;-90
2022/02/15 10:21:58;;;;;;;17.23;3.88;;;;;;;12.81;53.72;100140.75;4812859;29;120404;-90
2022/02/15 10:24:26;;;;;;;19.77;3.97;;;;;;;12.96;54.03;100168.97;4832696;29;119507;-91
2022/02/15 10:27:02;;;;;;;14.68;3.10;;;;;;;12.62;55.53;100123.69;4799640;29;121971;-91
2022/02/15 10:29:31;;;;;;;19.30;3.60;;;;;;;12.62;54.27;100125.69;4798930;29;123194;-89
2022/02/15 10:32:20;;;;;;;19.65;4.10;;;;;;;12.64;53.84;100136.97;4801657;29;120035;-92
2022/02/15 10:34:53;;;;;;;15.00;3.75;;;;;;;12.76;52.31;100150.41;4801287;29;120862;-88
2022/02/15 10:37:20;;;;;;;18.33;3.53;;;;;;;12.68;53.12;100148.53;4811763;29;123547;-90
2022/02/15 10:39:56;;;;;;;12.93;2.58;;;;;;;12.36;52.27;100111.78;4830444;28;119861;-90
2022/02/15 10:42:28;;;;;;;15.05;3.38;;;;;;;12.19;52.06;100093.03;4819505;29;121030;-89
2022/02/15 10:45:10;;;;;;;19.08;3.65;;;;;;;12.59;52.02;100152.94;4812491;29;119892;-88
2022/02/15 10:47:45;;;;;;;15.63;2.97;;;;;;;12.33;50.94;100113.50;4827819;28;122092;-89
2022/02/15 10:50:15;;;;;;;14.88;3.67;;;;;;;12.39;51.92;100133.59;4798967;29;121711;-90
2022/02/15 10:52:42;;;;;;;10.93;2.72;;;;;;;12.09;51.75;100086.13;4814612;29;120381;-90
2022/02/15 10:55:12;;;;;;;13.77;2.40;;;;;;;12.40;51.51;100129.63;4815759;29;122164;-90
2022/02/15 10:57:39;;;;;;;10.07;2.28;;;;;;;12.16;51.99;100095.97;4813509;29;122729;-90
2022/02/15 11:00:11;;;;;;;12.93;2.97;;;;;;;12.19;51.65;100098.53;4806473;29;121191;-89
2022/02/15 11:02:39;;;;;;;15.32;3.00;;;;;;;12.41;53.75;100133.88;4827264;29;121984;-88
2022/02/15 11:05:11;;;;;;;13.15;2.35;;;;;;;12.36;52.36;100137.31;4824778;29;120269;-91
2022/02/15 11:07:38;;;;;;;11.93;2.53;;;;;;;12.60;54.52;100167.44;4824279;28;122349;-90
2022/02/15 11:10:32;;;;;;;11.27;2.35;;;;;;;12.63;53.98;100166.50;4810296;29;120527;-91
2022/02/15 11:13:01;;;;;;;9.90;2.40;;;;;;;12.16;53.80;100109.72;4813050;29;120193;-90
2022/02/15 11:15:29;;;;;;;13.35;2.67;;;;;;;12.21;53.75;100100.81;4793578;29;122159;-90
2022/02/15 11:18:03;;;;;;;11.95;2.50;;;;;;;12.25;55.00;100099.38;4793109;29;123051;-89
2022/02/15 11:20:50;;;;;;;12.27;2.72;;;;;;;12.40;53.86;100112.34;4805338;29;120686;-91
2022/02/15 11:23:22;;;;;;;11.55;2.55;;;;;;;12.60;53.98;100126.19;4808998;29;122127;-86
2022/02/15 11:25:49;;;;;;;10.57;2.97;;;;;;;12.67;57.05;100147.03;4809995;29;120333;-90
2022/02/15 11:28:26;;;;;;;11.80;2.03;;;;;;;12.94;53.96;100160.44;4812193;29;120603;-88
2022/02/15 11:30:56;;;;;;;7.93;2.08;;;;;;;13.00;53.41;100160.50;4797514;29;123160;-90
2022/02/15 11:33:37;;;;;;;12.30;2.50;;;;;;;13.02;53.62;100158.06;4810661;29;121334;-91